createdAt,value
2023-01-19T00:00:29.897Z,98286.72
2023-01-19T00:02:57.072Z,98283.88
2023-01-19T00:05:24.219Z,98277.66
2023-01-19T00:07:51.431Z,98281.19
2023-01-19T00:10:18.671Z,98293.38
2023-01-19T00:12:45.875Z,98300.78
2023-01-19T00:15:13.031Z,98301.25
2023-01-19T00:17:41.172Z,98295.88
2023-01-19T00:20:11.106Z,98301.25
2023-01-19T00:22:38.272Z,98296.53
2023-01-19T00:25:05.511Z,98290.34
2023-01-19T00:27:35.037Z,98289.31
2023-01-19T00:30:02.284Z,98272.41
2023-01-19T00:32:29.398Z,98275.91
2023-01-19T00:34:56.507Z,98279.44
2023-01-19T00:37:23.683Z,98271.19
2023-01-19T00:39:50.909Z,98279.06
2023-01-19T00:42:36.629Z,98280.09
2023-01-19T00:45:03.839Z,98279.91
2023-01-19T00:47:32.209Z,98290.63
2023-01-19T00:49:59.379Z,98300.53
2023-01-19T00:52:26.595Z,98304.69
2023-01-19T00:54:53.775Z,98310.06
2023-01-19T00:57:20.926Z,98316.44
2023-01-19T00:59:48.082Z,98308.38
2023-01-19T01:02:15.509Z,98310.88
2023-01-19T01:04:42.858Z,98307.38
2023-01-19T01:07:10.120Z,98289.44
2023-01-19T01:09:37.382Z,98279.72
2023-01-19T01:12:04.537Z,98287.75
2023-01-19T01:14:33.219Z,98307.38
2023-01-19T01:17:00.741Z,98317.13
2023-01-19T01:19:27.977Z,98321.63
2023-01-19T01:21:55.694Z,98313.41
2023-01-19T01:24:22.876Z,98317.94
2023-01-19T01:26:50.074Z,98317.94
2023-01-19T01:29:17.262Z,98317.94
2023-01-19T01:31:44.491Z,98306.38
2023-01-19T01:34:11.676Z,98291.13
2023-01-19T01:36:38.954Z,98278.53
2023-01-19T01:39:06.357Z,98279.38
2023-01-19T01:41:33.518Z,98261.44
2023-01-19T01:44:01.780Z,98256.91
2023-01-19T01:46:30.630Z,98263.94
2023-01-19T01:49:03.093Z,98285.22
2023-01-19T01:51:40.360Z,98285.22
2023-01-19T01:54:07.530Z,98304.81
2023-01-19T01:56:39.025Z,98322.59
2023-01-19T01:59:07.825Z,98321.75
2023-01-19T02:01:54.678Z,98314.72
2023-01-19T02:04:23.426Z,98312.03
2023-01-19T02:07:08.971Z,98308.53
2023-01-19T02:09:55.882Z,98312.88
2023-01-19T02:12:42.297Z,98308.34
2023-01-19T02:15:17.002Z,98301.94
2023-01-19T02:17:44.446Z,98299.28
2023-01-19T02:20:12.172Z,98305.47
2023-01-19T02:22:46.834Z,98292.88
2023-01-19T02:25:14.780Z,98296.38
2023-01-19T02:27:42.460Z,98293.69
2023-01-19T02:30:10.088Z,98293.69
2023-01-19T02:32:37.319Z,98298.03
2023-01-19T02:35:04.642Z,98303.41
2023-01-19T02:37:34.272Z,98319.50
2023-01-19T02:40:02.830Z,98342.63
2023-01-19T02:42:32.507Z,98350.69
2023-01-19T02:44:59.996Z,98348.84
2023-01-19T02:47:27.268Z,98352.34
2023-01-19T02:49:58.107Z,98353.19
2023-01-19T02:52:25.657Z,98354.03
2023-01-19T02:55:05.002Z,98334.41
2023-01-19T02:57:42.983Z,98317.28
2023-01-19T03:00:16.095Z,98324.50
2023-01-19T03:02:49.633Z,98312.75
2023-01-19T03:05:35.653Z,98307.38
2023-01-19T03:08:08.622Z,98318.94
2023-01-19T03:10:43.605Z,98313.59
2023-01-19T03:13:19.840Z,98311.72
2023-01-19T03:15:49.562Z,98327.00
2023-01-19T03:18:20.339Z,98329.50
2023-01-19T03:20:49.321Z,98340.22
2023-01-19T03:23:17.397Z,98349.13
2023-01-19T03:25:47.339Z,98343.75
2023-01-19T03:28:16.089Z,98345.41
2023-01-19T03:30:46.641Z,98348.94
2023-01-19T03:33:23.723Z,98360.69
2023-01-19T03:35:52.495Z,98349.94
2023-01-19T03:38:25.401Z,98342.72
2023-01-19T03:40:55.938Z,98350.59
2023-01-19T03:43:23.734Z,98352.44
2023-01-19T03:45:51.684Z,98347.91
2023-01-19T03:48:20.799Z,98335.34
2023-01-19T03:50:48.084Z,98321.09
2023-01-19T03:53:16.310Z,98316.56
2023-01-19T03:55:45.682Z,98321.72
2023-01-19T03:58:12.864Z,98324.41
2023-01-19T04:00:40.505Z,98327.09
2023-01-19T04:03:12.928Z,98327.09
2023-01-19T04:05:40.453Z,98335.16
2023-01-19T04:08:07.868Z,98330.63
2023-01-19T04:10:35.210Z,98325.25
2023-01-19T04:13:03.040Z,98316.38
2023-01-19T04:15:31.101Z,98331.44
2023-01-19T04:17:58.644Z,98325.25
2023-01-19T04:20:27.359Z,98314.69
2023-01-19T04:22:56.127Z,98311.00
2023-01-19T04:25:23.253Z,98307.31
2023-01-19T04:27:53.727Z,98319.06
2023-01-19T04:30:21.114Z,98324.41
2023-01-19T04:32:48.295Z,98330.63
2023-01-19T04:35:15.474Z,98336.81
2023-01-19T04:37:42.713Z,98337.66
2023-01-19T04:40:10.124Z,98342.19
2023-01-19T04:42:37.245Z,98346.53
2023-01-19T04:45:04.661Z,98348.38
2023-01-19T04:47:31.890Z,98347.56
2023-01-19T04:49:58.995Z,98343.03
2023-01-19T04:52:34.990Z,98347.56
2023-01-19T04:55:03.385Z,98354.59
2023-01-19T04:57:30.820Z,98348.38
2023-01-19T04:59:58.446Z,98351.06
2023-01-19T05:02:25.729Z,98342.19
2023-01-19T05:04:53.311Z,98344.69
2023-01-19T05:07:20.443Z,98342.84
2023-01-19T05:09:47.601Z,98332.75
2023-01-19T05:12:14.906Z,98332.75
2023-01-19T05:14:42.123Z,98325.72
2023-01-19T05:17:09.590Z,98336.63
2023-01-19T05:19:36.681Z,98343.03
2023-01-19T05:22:04.531Z,98335.16
2023-01-19T05:24:31.996Z,98325.63
2023-01-19T05:26:59.275Z,98339.88
2023-01-19T05:29:26.474Z,98337.38
2023-01-19T05:31:53.686Z,98354.47
2023-01-19T05:34:20.847Z,98365.22
2023-01-19T05:36:48.077Z,98384.19
2023-01-19T05:39:15.415Z,98394.09
2023-01-19T05:41:43.544Z,98403.97
2023-01-19T05:44:11.055Z,98415.72
2023-01-19T05:46:38.768Z,98417.59
2023-01-19T05:49:07.358Z,98422.94
2023-01-19T05:51:37.989Z,98411.38
2023-01-19T05:54:05.795Z,98414.06
2023-01-19T05:56:33.295Z,98411.38
2023-01-19T05:59:00.553Z,98409.72
2023-01-19T06:01:28.337Z,98408.88
2023-01-19T06:03:55.587Z,98425.81
2023-01-19T06:06:22.763Z,98425.81
2023-01-19T06:08:49.923Z,98429.50
2023-01-19T06:11:17.250Z,98425.16
2023-01-19T06:13:44.358Z,98435.88
2023-01-19T06:16:11.953Z,98435.88
2023-01-19T06:18:39.199Z,98423.53
2023-01-19T06:21:07.391Z,98446.84
2023-01-19T06:23:35.578Z,98452.19
2023-01-19T06:26:03.800Z,98454.03
2023-01-19T06:28:31.265Z,98448.69
2023-01-19T06:30:58.693Z,98444.34
2023-01-19T06:33:25.919Z,98461.25
2023-01-19T06:35:53.094Z,98461.25
2023-01-19T06:38:20.408Z,98467.47
2023-01-19T06:40:54.786Z,98471.16
2023-01-19T06:43:22.096Z,98486.25
2023-01-19T06:45:50.202Z,98490.78
2023-01-19T06:48:17.782Z,98514.91
2023-01-19T06:50:45.304Z,98508.72
2023-01-19T06:53:12.730Z,98514.44
2023-01-19T06:55:40.008Z,98530.19
2023-01-19T06:58:07.328Z,98540.09
2023-01-19T07:00:34.515Z,98531.19
2023-01-19T07:03:02.281Z,98539.25
2023-01-19T07:05:29.722Z,98543.78
2023-01-19T07:07:57.198Z,98544.59
2023-01-19T07:10:24.987Z,98542.94
2023-01-19T07:12:52.132Z,98537.56
2023-01-19T07:15:19.867Z,98532.22
2023-01-19T07:17:47.116Z,98528.69
2023-01-19T07:20:14.522Z,98524.34
2023-01-19T07:22:43.521Z,98513.59
2023-01-19T07:25:10.681Z,98515.47
2023-01-19T07:27:37.962Z,98513.59
2023-01-19T07:30:05.420Z,98518.13
2023-01-19T07:32:32.605Z,98519.97
2023-01-19T07:34:59.731Z,98518.13
2023-01-19T07:37:26.890Z,98516.28
2023-01-19T07:39:54.084Z,98513.78
2023-01-19T07:42:21.275Z,98513.78
2023-01-19T07:44:48.421Z,98516.47
2023-01-19T07:47:15.636Z,98519.16
2023-01-19T07:49:42.899Z,98531.88
2023-01-19T07:52:10.024Z,98517.44
2023-01-19T07:54:37.302Z,98509.41
2023-01-19T07:57:04.421Z,98512.09
2023-01-19T07:59:32.394Z,98505.03
2023-01-19T08:01:59.939Z,98525.69
2023-01-19T08:04:27.987Z,98519.28
2023-01-19T08:06:56.003Z,98503.38
2023-01-19T08:09:24.417Z,98503.38
2023-01-19T08:11:51.679Z,98530.03
2023-01-19T08:14:18.910Z,98523.00
2023-01-19T08:16:46.121Z,98544.44
2023-01-19T08:19:13.343Z,98556.19
2023-01-19T08:21:40.733Z,98529.38
2023-01-19T08:24:17.933Z,98504.38
2023-01-19T08:26:45.180Z,98488.28
2023-01-19T08:29:12.289Z,98497.34
2023-01-19T08:31:39.687Z,98518.81
2023-01-19T08:34:07.243Z,98516.97
2023-01-19T08:36:34.403Z,98529.53
2023-01-19T08:39:02.299Z,98542.97
2023-01-19T08:41:29.686Z,98547.50
2023-01-19T08:43:56.853Z,98543.97
2023-01-19T08:46:24.129Z,98548.31
2023-01-19T08:48:51.333Z,98542.31
2023-01-19T08:51:18.509Z,98542.47
2023-01-19T08:53:45.788Z,98544.97
2023-01-19T08:56:13.769Z,98568.28
2023-01-19T08:58:41.760Z,98577.16
2023-01-19T09:01:09.966Z,98586.22
2023-01-19T09:03:37.300Z,98592.44
2023-01-19T09:06:08.197Z,98594.28
2023-01-19T09:08:35.348Z,98586.22
2023-01-19T09:11:02.590Z,98583.56
2023-01-19T09:13:29.781Z,98587.25
2023-01-19T09:15:57.019Z,98581.03
2023-01-19T09:18:24.225Z,98582.88
2023-01-19T09:20:51.407Z,98569.84
2023-01-19T09:23:20.177Z,98574.00
2023-01-19T09:25:48.020Z,98577.53
2023-01-19T09:28:17.554Z,98574.00
2023-01-19T09:30:45.257Z,98583.91
2023-01-19T09:33:14.078Z,98590.09
2023-01-19T09:35:41.583Z,98594.63
2023-01-19T09:38:09.321Z,98590.44
2023-01-19T09:40:42.160Z,98588.44
2023-01-19T09:43:32.757Z,98587.78
2023-01-19T09:46:12.012Z,98581.75
2023-01-19T09:48:39.214Z,98598.66
2023-01-19T09:51:10.407Z,98585.09
2023-01-19T09:53:56.456Z,98582.56
2023-01-19T09:56:23.952Z,98598.66
2023-01-19T09:58:51.485Z,98600.34
2023-01-19T10:01:27.023Z,98596.81
2023-01-19T10:04:05.588Z,98585.25
2023-01-19T10:06:32.844Z,98590.81
2023-01-19T10:09:07.673Z,98587.94
2023-01-19T10:11:52.744Z,98583.75
2023-01-19T10:14:28.194Z,98594.31
2023-01-19T10:17:00.969Z,98575.53
2023-01-19T10:19:33.777Z,98565.81
2023-01-19T10:22:04.031Z,98573.88
2023-01-19T10:24:42.067Z,98561.47
2023-01-19T10:27:20.842Z,98566.84
2023-01-19T10:29:48.117Z,98565.81
2023-01-19T10:32:26.215Z,98566.03
2023-01-19T10:34:54.701Z,98579.44
2023-01-19T10:37:27.908Z,98581.28
2023-01-19T10:39:57.147Z,98594.50
2023-01-19T10:42:28.482Z,98595.53
2023-01-19T10:44:55.941Z,98599.03
2023-01-19T10:47:27.371Z,98610.78
2023-01-19T10:49:55.151Z,98624.19
2023-01-19T10:52:34.223Z,98621.53
2023-01-19T10:55:02.730Z,98621.53
2023-01-19T10:57:36.946Z,98627.91
2023-01-19T11:00:05.885Z,98639.47
2023-01-19T11:02:33.362Z,98635.94
2023-01-19T11:05:02.361Z,98635.94
2023-01-19T11:07:31.290Z,98636.94
2023-01-19T11:10:22.998Z,98645.84
2023-01-19T11:13:08.730Z,98646.00
2023-01-19T11:15:48.868Z,98662.09
2023-01-19T11:18:35.581Z,98663.09
2023-01-19T11:21:16.434Z,98667.47
2023-01-19T11:23:47.747Z,98668.47
2023-01-19T11:26:16.544Z,98663.09
2023-01-19T11:28:47.584Z,98670.31
2023-01-19T11:31:14.801Z,98677.53
2023-01-19T11:33:50.783Z,98675.69
2023-01-19T11:36:18.669Z,98692.78
2023-01-19T11:38:46.448Z,98701.66
2023-01-19T11:41:16.786Z,98700.81
2023-01-19T11:43:49.415Z,98700.81
2023-01-19T11:46:17.689Z,98708.88
2023-01-19T11:48:56.677Z,98724.13
2023-01-19T11:51:26.988Z,98724.13
2023-01-19T11:53:54.249Z,98728.66
2023-01-19T11:56:24.256Z,98730.50
2023-01-19T11:58:51.564Z,98733.19
2023-01-19T12:01:21.563Z,98733.34
2023-01-19T12:03:58.966Z,98735.03
2023-01-19T12:06:37.801Z,98734.19
2023-01-19T12:09:26.940Z,98740.38
2023-01-19T12:11:58.430Z,98747.59
2023-01-19T12:14:31.802Z,98758.31
2023-01-19T12:17:01.057Z,98769.88
2023-01-19T12:19:42.301Z,98765.53
2023-01-19T12:22:16.051Z,98776.25
2023-01-19T12:24:58.496Z,98780.78
2023-01-19T12:27:39.883Z,98779.94
2023-01-19T12:30:26.647Z,98788.81
2023-01-19T12:33:13.787Z,98803.25
2023-01-19T12:35:57.800Z,98803.25
2023-01-19T12:38:44.095Z,98812.97
2023-01-19T12:41:16.997Z,98818.31
2023-01-19T12:43:44.214Z,98821.16
2023-01-19T12:46:23.763Z,98832.72
2023-01-19T12:48:51.018Z,98838.09
2023-01-19T12:51:27.194Z,98834.59
2023-01-19T12:53:57.067Z,98825.69
2023-01-19T12:56:29.883Z,98824.03
2023-01-19T12:58:57.366Z,98829.38
2023-01-19T13:01:25.023Z,98832.91
2023-01-19T13:04:01.635Z,98837.59
2023-01-19T13:06:46.996Z,98859.88
2023-01-19T13:09:30.768Z,98872.28
2023-01-19T13:12:11.033Z,98880.34
2023-01-19T13:14:38.331Z,98885.88
2023-01-19T13:17:11.840Z,98888.53
2023-01-19T13:19:44.183Z,98891.22
2023-01-19T13:22:41.109Z,98905.63
2023-01-19T13:25:12.405Z,98915.38
2023-01-19T13:27:40.466Z,98915.19
2023-01-19T13:30:17.712Z,98921.41
2023-01-19T13:32:45.001Z,98931.13
2023-01-19T13:35:14.886Z,98935.66
2023-01-19T13:37:43.966Z,98937.50
2023-01-19T13:40:17.115Z,98944.53
2023-01-19T13:42:44.325Z,98947.22
2023-01-19T13:45:41.779Z,98950.91
2023-01-19T13:48:13.867Z,98952.56
2023-01-19T13:50:41.103Z,98963.31
2023-01-19T13:53:16.944Z,98970.50
2023-01-19T13:55:44.174Z,98967.00
2023-01-19T13:58:24.255Z,98970.50
2023-01-19T14:00:51.440Z,98977.53
2023-01-19T14:03:23.033Z,98977.53
2023-01-19T14:05:51.941Z,98977.72
2023-01-19T14:08:19.817Z,98989.28
2023-01-19T14:11:02.339Z,98991.13
2023-01-19T14:13:31.427Z,99009.88
2023-01-19T14:16:05.615Z,99010.06
2023-01-19T14:18:33.833Z,99020.78
2023-01-19T14:21:12.052Z,99027.81
2023-01-19T14:23:44.301Z,99043.06
2023-01-19T14:26:30.150Z,99052.13
2023-01-19T14:28:57.441Z,99065.38
2023-01-19T14:31:27.629Z,99069.91
2023-01-19T14:34:01.866Z,99078.78
2023-01-19T14:36:40.314Z,99078.78
2023-01-19T14:39:16.046Z,99074.25
2023-01-19T14:41:48.117Z,99073.25
2023-01-19T14:44:25.188Z,99067.03
2023-01-19T14:46:52.486Z,99079.47
2023-01-19T14:49:21.906Z,99073.25
2023-01-19T14:51:49.664Z,99065.38
2023-01-19T14:54:18.397Z,99073.41
2023-01-19T14:56:45.552Z,99073.06
2023-01-19T14:59:12.780Z,99078.09
2023-01-19T15:01:40.080Z,99077.25
2023-01-19T15:04:07.405Z,99086.31
2023-01-19T15:06:38.814Z,99080.94
2023-01-19T15:09:06.095Z,99076.59
2023-01-19T15:11:34.693Z,99083.78
2023-01-19T15:14:02.410Z,99091.66
2023-01-19T15:16:31.859Z,99099.88
2023-01-19T15:18:59.138Z,99111.44
2023-01-19T15:21:26.904Z,99109.75
2023-01-19T15:23:55.401Z,99112.59
2023-01-19T15:26:23.883Z,99115.28
2023-01-19T15:28:52.348Z,99117.97
2023-01-19T15:31:21.416Z,99129.53
2023-01-19T15:33:48.855Z,99132.22
2023-01-19T15:36:18.054Z,99149.97
2023-01-19T15:38:45.984Z,99153.66
2023-01-19T15:41:23.345Z,99146.47
2023-01-19T15:43:51.133Z,99148.47
2023-01-19T15:46:21.530Z,99146.63
2023-01-19T15:48:50.781Z,99150.97
2023-01-19T15:51:22.289Z,99151.97
2023-01-19T15:53:49.843Z,99144.78
2023-01-19T15:56:22.885Z,99156.34
2023-01-19T15:58:50.188Z,99172.44
2023-01-19T16:01:22.735Z,99187.69
2023-01-19T16:03:50.310Z,99198.41
2023-01-19T16:06:18.073Z,99210.97
2023-01-19T16:08:45.348Z,99217.19
2023-01-19T16:11:14.774Z,99213.66
2023-01-19T16:13:47.231Z,99224.53
2023-01-19T16:16:16.196Z,99217.34
2023-01-19T16:18:43.570Z,99221.84
2023-01-19T16:21:10.975Z,99221.84
2023-01-19T16:23:41.781Z,99215.66
2023-01-19T16:26:28.905Z,99212.13
2023-01-19T16:29:00.760Z,99216.66
2023-01-19T16:31:29.237Z,99219.34
2023-01-19T16:33:56.672Z,99213.13
2023-01-19T16:36:26.587Z,99215.81
2023-01-19T16:39:00.251Z,99221.19
2023-01-19T16:41:27.931Z,99232.75
2023-01-19T16:43:56.176Z,99245.31
2023-01-19T16:46:25.289Z,99244.47
2023-01-19T16:48:52.990Z,99241.78
2023-01-19T16:51:20.297Z,99247.16
2023-01-19T16:53:51.917Z,99243.63
2023-01-19T16:56:19.210Z,99251.66
2023-01-19T16:58:47.841Z,99265.06
2023-01-19T17:01:20.221Z,99265.06
2023-01-19T17:03:47.812Z,99275.81
2023-01-19T17:06:18.260Z,99281.16
2023-01-19T17:08:50.388Z,99282.84
2023-01-19T17:11:21.317Z,99282.84
2023-01-19T17:13:49.665Z,99286.53
2023-01-19T17:16:18.707Z,99290.88
2023-01-19T17:18:46.085Z,99290.88
2023-01-19T17:21:17.773Z,99289.22
2023-01-19T17:23:49.937Z,99296.25
2023-01-19T17:26:18.091Z,99294.56
2023-01-19T17:28:46.368Z,99297.25
2023-01-19T17:31:18.324Z,99289.22
2023-01-19T17:33:46.727Z,99288.22
2023-01-19T17:36:15.720Z,99293.56
2023-01-19T17:38:42.945Z,99301.63
2023-01-19T17:41:17.500Z,99304.31
2023-01-19T17:43:45.150Z,99311.50
2023-01-19T17:46:12.446Z,99308.81
2023-01-19T17:48:39.913Z,99309.66
2023-01-19T17:51:10.817Z,99297.09
2023-01-19T17:53:38.580Z,99296.25
2023-01-19T17:56:06.627Z,99296.25
2023-01-19T17:58:34.198Z,99293.56
2023-01-19T18:01:08.497Z,99289.06
2023-01-19T18:03:35.828Z,99283.69
2023-01-19T18:06:03.007Z,99280.16
2023-01-19T18:08:30.310Z,99293.56
2023-01-19T18:11:18.611Z,99291.72
2023-01-19T18:13:48.116Z,99294.41
2023-01-19T18:16:17.184Z,99293.56
2023-01-19T18:18:44.415Z,99293.56
2023-01-19T18:21:13.172Z,99293.56
2023-01-19T18:23:41.411Z,99293.56
2023-01-19T18:26:16.748Z,99292.72
2023-01-19T18:28:43.899Z,99298.94
2023-01-19T18:31:12.163Z,99306.97
2023-01-19T18:33:39.610Z,99315.03
2023-01-19T18:36:07.368Z,99318.53
2023-01-19T18:38:34.864Z,99326.59
2023-01-19T18:41:05.438Z,99333.78
2023-01-19T18:43:33.210Z,99346.34
2023-01-19T18:46:00.413Z,99339.16
2023-01-19T18:48:27.692Z,99329.28
2023-01-19T18:50:55.716Z,99331.97
2023-01-19T18:53:24.243Z,99326.59
2023-01-19T18:55:52.513Z,99339.16
2023-01-19T18:58:19.802Z,99347.19
2023-01-19T19:00:47.773Z,99348.03
2023-01-19T19:03:15.056Z,99360.59
2023-01-19T19:05:42.361Z,99356.09
2023-01-19T19:08:09.771Z,99358.78
2023-01-19T19:10:37.351Z,99356.25
2023-01-19T19:13:04.658Z,99364.28
2023-01-19T19:15:32.890Z,99371.34
2023-01-19T19:18:00.985Z,99366.97
2023-01-19T19:20:28.209Z,99378.53
2023-01-19T19:22:55.747Z,99386.59
2023-01-19T19:25:23.345Z,99401.81
2023-01-19T19:27:51.883Z,99390.09
2023-01-19T19:30:20.761Z,99374.34
2023-01-19T19:32:54.641Z,99378.72
2023-01-19T19:35:25.861Z,99372.34
2023-01-19T19:37:57.913Z,99365.31
2023-01-19T19:40:27.184Z,99365.31
2023-01-19T19:42:54.815Z,99363.63
2023-01-19T19:45:23.836Z,99352.06
2023-01-19T19:47:51.074Z,99352.91
2023-01-19T19:50:18.412Z,99331.47
2023-01-19T19:52:45.674Z,99315.38
2023-01-19T19:55:12.993Z,99324.41
2023-01-19T19:57:40.242Z,99354.75
2023-01-19T20:00:08.370Z,99367.31
2023-01-19T20:02:38.137Z,99382.56
2023-01-19T20:05:05.599Z,99378.88
2023-01-19T20:07:33.500Z,99369.00
2023-01-19T20:10:00.692Z,99373.38
2023-01-19T20:12:27.896Z,99384.09
2023-01-19T20:14:55.088Z,99393.13
2023-01-19T20:17:23.624Z,99411.06
2023-01-19T20:19:50.861Z,99395.63
2023-01-19T20:22:18.156Z,99403.84
2023-01-19T20:24:45.664Z,99427.13
2023-01-19T20:27:14.185Z,99437.72
2023-01-19T20:29:41.890Z,99424.47
2023-01-19T20:32:10.903Z,99424.47
2023-01-19T20:34:38.486Z,99424.47
2023-01-19T20:37:07.051Z,99427.00
2023-01-19T20:39:36.482Z,99420.94
2023-01-19T20:42:05.053Z,99420.94
2023-01-19T20:44:32.970Z,99419.09
2023-01-19T20:47:00.750Z,99425.31
2023-01-19T20:49:29.087Z,99435.03
2023-01-19T20:51:56.538Z,99433.16
2023-01-19T20:54:26.344Z,99425.97
2023-01-19T20:56:53.966Z,99431.31
2023-01-19T20:59:21.236Z,99430.47
2023-01-19T21:01:49.755Z,99433.00
2023-01-19T21:04:17.517Z,99434.84
2023-01-19T21:06:45.861Z,99445.75
2023-01-19T21:09:13.359Z,99449.25
2023-01-19T21:11:41.047Z,99453.63
2023-01-19T21:14:08.719Z,99460.81
2023-01-19T21:16:45.507Z,99472.56
2023-01-19T21:19:14.011Z,99468.03
2023-01-19T21:21:41.437Z,99473.38
2023-01-19T21:24:10.842Z,99465.53
2023-01-19T21:26:40.458Z,99462.00
2023-01-19T21:29:13.201Z,99458.47
2023-01-19T21:31:41.297Z,99443.22
2023-01-19T21:34:09.297Z,99431.66
2023-01-19T21:36:37.038Z,99431.66
2023-01-19T21:39:06.543Z,99443.88
2023-01-19T21:41:35.985Z,99449.44
2023-01-19T21:44:04.362Z,99449.44
2023-01-19T21:46:34.054Z,99433.34
2023-01-19T21:49:04.042Z,99419.25
2023-01-19T21:51:36.049Z,99413.88
2023-01-19T21:54:04.997Z,99408.53
2023-01-19T21:56:32.879Z,99405.00
2023-01-19T21:59:03.111Z,99400.47
2023-01-19T22:01:33.504Z,99390.75
2023-01-19T22:04:01.103Z,99385.38
2023-01-19T22:06:28.814Z,99382.56
2023-01-19T22:08:57.917Z,99369.00
2023-01-19T22:11:26.647Z,99366.13
2023-01-19T22:13:54.561Z,99350.03
2023-01-19T22:16:22.627Z,99343.69
2023-01-19T22:18:51.696Z,99336.47
2023-01-19T22:21:24.094Z,99339.16
2023-01-19T22:23:53.159Z,99348.88
2023-01-19T22:26:20.337Z,99354.25
2023-01-19T22:28:47.900Z,99363.13
2023-01-19T22:31:16.192Z,99364.97
2023-01-19T22:33:44.039Z,99365.81
2023-01-19T22:36:23.247Z,99369.50
2023-01-19T22:38:54.068Z,99380.06
2023-01-19T22:41:22.555Z,99386.44
2023-01-19T22:43:50.378Z,99391.78
2023-01-19T22:46:19.096Z,99398.00
2023-01-19T22:48:47.047Z,99397.16
2023-01-19T22:51:14.964Z,99409.56
2023-01-19T22:53:42.185Z,99409.56
2023-01-19T22:56:10.817Z,99403.34
2023-01-19T22:58:40.430Z,99409.56
2023-01-19T23:01:08.561Z,99412.25
2023-01-19T23:03:36.706Z,99413.09
2023-01-19T23:06:06.418Z,99412.94
2023-01-19T23:08:35.372Z,99412.09
2023-01-19T23:11:06.336Z,99403.22
2023-01-19T23:13:33.919Z,99404.03
2023-01-19T23:16:01.485Z,99404.88
2023-01-19T23:18:29.263Z,99404.72
2023-01-19T23:20:56.433Z,99406.41
2023-01-19T23:23:24.652Z,99408.25
2023-01-19T23:25:52.138Z,99401.22
2023-01-19T23:28:19.283Z,99393.16
2023-01-19T23:30:46.588Z,99394.00
2023-01-19T23:33:15.652Z,99385.97
2023-01-19T23:35:42.813Z,99379.75
2023-01-19T23:38:09.979Z,99376.09
2023-01-19T23:40:38.659Z,99377.91
2023-01-19T23:43:06.107Z,99378.75
2023-01-19T23:45:34.978Z,99377.75
2023-01-19T23:48:03.805Z,99375.94
2023-01-19T23:50:30.986Z,99375.09
2023-01-19T23:52:58.159Z,99380.13
2023-01-19T23:55:27.002Z,99368.56
2023-01-19T23:57:54.181Z,99359.69
